createdAt,value
2018-08-11T00:00:56.994Z,61.90
2018-08-11T00:04:50.983Z,62.20
2018-08-11T00:08:44.995Z,62.40
2018-08-11T00:12:38.956Z,62.10
2018-08-11T00:16:32.962Z,61.90
2018-08-11T00:20:28.699Z,61.60
2018-08-11T00:24:22.594Z,61.90
2018-08-11T00:28:16.915Z,62.60
2018-08-11T00:32:10.811Z,63.10
2018-08-11T00:36:04.308Z,64.00
2018-08-11T00:39:58.244Z,65.70
2018-08-11T00:43:52.677Z,72.10
2018-08-11T00:47:53.255Z,78.60
2018-08-11T00:51:47.196Z,87.70
2018-08-11T00:55:41.235Z,92.00
2018-08-11T00:59:35.196Z,95.00
2018-08-11T01:03:29.302Z,97.20
2018-08-11T01:07:23.314Z,98.60
2018-08-11T01:11:17.270Z,99.40
2018-08-11T01:15:16.253Z,99.90
2018-08-11T01:19:11.167Z,99.90
2018-08-11T01:23:05.075Z,99.90
2018-08-11T01:26:59.041Z,99.90
2018-08-11T01:30:53.156Z,99.90
2018-08-11T01:34:47.143Z,99.90
2018-08-11T01:38:40.685Z,99.90
2018-08-11T01:42:34.701Z,99.90
2018-08-11T01:46:28.672Z,99.90
2018-08-11T01:50:22.715Z,99.90
2018-08-11T01:54:16.691Z,99.90
2018-08-11T01:58:10.639Z,99.90
2018-08-11T02:02:05.078Z,99.90
2018-08-11T02:05:58.983Z,99.90
2018-08-11T02:09:52.978Z,99.90
2018-08-11T02:13:47.767Z,99.90
2018-08-11T02:17:41.786Z,99.90
2018-08-11T02:21:35.880Z,99.90
2018-08-11T02:25:29.897Z,99.90
2018-08-11T02:29:23.776Z,99.90
2018-08-11T02:33:17.762Z,99.90
2018-08-11T02:37:11.898Z,99.90
2018-08-11T02:41:05.395Z,99.90
2018-08-11T02:44:59.321Z,99.90
2018-08-11T02:48:53.276Z,99.90
2018-08-11T02:52:48.816Z,99.90
2018-08-11T02:56:43.808Z,99.90
2018-08-11T03:00:37.772Z,99.90
2018-08-11T03:04:31.755Z,99.90
2018-08-11T03:08:25.756Z,99.90
2018-08-11T03:12:19.778Z,99.90
2018-08-11T03:16:13.907Z,99.90
2018-08-11T03:20:10.459Z,99.90
2018-08-11T03:24:04.425Z,99.90
2018-08-11T03:27:58.454Z,99.90
2018-08-11T03:31:52.364Z,99.90
2018-08-11T03:35:46.330Z,99.90
2018-08-11T03:39:40.388Z,99.90
2018-08-11T03:43:34.431Z,99.90
2018-08-11T03:47:28.491Z,99.90
2018-08-11T03:51:21.134Z,99.90
2018-08-11T03:59:39.090Z,99.90
2018-08-11T04:03:32.974Z,99.90
2018-08-11T04:07:27.054Z,99.90
2018-08-11T04:11:20.983Z,99.90
2018-08-11T04:15:14.932Z,99.90
2018-08-11T04:19:08.912Z,99.90
2018-08-11T04:23:02.871Z,99.90
2018-08-11T04:26:57.102Z,99.90
2018-08-11T04:30:51.245Z,99.90
2018-08-11T04:34:45.496Z,99.90
2018-08-11T04:38:38.958Z,99.90
2018-08-11T04:42:33.767Z,99.90
2018-08-11T04:46:27.879Z,99.90
2018-08-11T04:50:22.615Z,99.90
2018-08-11T04:54:16.559Z,99.90
2018-08-11T04:58:10.524Z,99.90
2018-08-11T05:02:05.094Z,99.90
2018-08-11T05:05:59.182Z,99.90
2018-08-11T05:09:53.138Z,99.90
2018-08-11T05:13:47.578Z,99.90
2018-08-11T05:17:43.016Z,99.90
2018-08-11T05:21:38.506Z,99.90
2018-08-11T05:25:32.649Z,99.90
2018-08-11T05:29:26.659Z,99.90
2018-08-11T05:33:21.209Z,99.90
2018-08-11T05:37:14.395Z,99.90
2018-08-11T05:41:08.851Z,99.90
2018-08-11T05:45:02.914Z,99.90
2018-08-11T05:48:56.876Z,99.90
2018-08-11T05:52:50.969Z,99.90
2018-08-11T05:56:45.565Z,99.90
2018-08-11T06:00:39.533Z,99.90
2018-08-11T06:04:33.651Z,99.90
2018-08-11T06:08:27.609Z,99.90
2018-08-11T06:12:21.643Z,99.90
2018-08-11T06:16:15.773Z,99.90
2018-08-11T06:20:10.666Z,99.90
2018-08-11T06:24:04.723Z,99.90
2018-08-11T06:27:58.637Z,99.90
2018-08-11T06:31:52.628Z,99.90
2018-08-11T06:35:46.056Z,99.90
2018-08-11T06:39:40.591Z,99.90
2018-08-11T06:43:36.767Z,99.90
2018-08-11T06:47:32.020Z,99.90
2018-08-11T06:51:26.084Z,99.90
2018-08-11T06:55:20.247Z,99.90
2018-08-11T06:59:14.624Z,99.90
2018-08-11T07:03:09.938Z,99.90
2018-08-11T07:07:04.636Z,99.90
2018-08-11T07:10:58.645Z,99.90
2018-08-11T07:14:55.966Z,99.90
2018-08-11T07:18:50.025Z,99.90
2018-08-11T07:22:44.192Z,99.90
2018-08-11T07:26:38.225Z,99.90
2018-08-11T07:30:32.676Z,99.90
2018-08-11T07:34:28.380Z,99.90
2018-08-11T07:38:25.620Z,99.90
2018-08-11T07:42:19.714Z,99.90
2018-08-11T07:46:13.873Z,99.00
2018-08-11T07:50:08.168Z,99.00
2018-08-11T07:54:07.519Z,98.40
2018-08-11T07:58:02.050Z,98.10
2018-08-11T08:01:56.123Z,96.80
2018-08-11T08:05:50.446Z,95.70
2018-08-11T08:09:44.573Z,96.10
2018-08-11T08:13:39.250Z,96.40
2018-08-11T08:17:33.824Z,95.20
2018-08-11T08:21:37.350Z,95.80
2018-08-11T08:25:31.408Z,94.80
2018-08-11T08:29:26.125Z,93.10
2018-08-11T08:33:20.247Z,92.20
2018-08-11T08:37:13.726Z,91.80
2018-08-11T08:41:07.712Z,91.20
2018-08-11T08:45:02.333Z,92.30
2018-08-11T08:48:56.400Z,91.70
2018-08-11T08:52:51.345Z,90.70
2018-08-11T08:56:45.691Z,90.00
2018-08-11T09:00:39.955Z,87.40
2018-08-11T09:04:34.046Z,87.60
2018-08-11T09:08:28.093Z,86.70
2018-08-11T09:12:24.401Z,84.50
2018-08-11T09:16:18.735Z,82.00
2018-08-11T09:20:12.855Z,80.10
2018-08-11T09:24:08.279Z,82.10
2018-08-11T09:28:02.916Z,81.60
2018-08-11T09:31:56.886Z,80.30
2018-08-11T09:35:51.218Z,81.90
2018-08-11T09:39:45.245Z,83.30
2018-08-11T09:43:40.426Z,82.20
2018-08-11T09:47:34.343Z,81.20
2018-08-11T09:51:28.802Z,81.80
2018-08-11T09:55:22.856Z,73.70
2018-08-11T09:59:17.123Z,74.20
2018-08-11T10:03:11.600Z,75.20
2018-08-11T10:07:06.008Z,75.40
2018-08-11T10:11:01.229Z,71.00
2018-08-11T10:14:55.371Z,69.40
2018-08-11T10:18:50.599Z,69.00
2018-08-11T10:22:45.126Z,68.10
2018-08-11T10:26:43.131Z,68.10
2018-08-11T10:30:39.338Z,67.40
2018-08-11T10:34:33.359Z,69.40
2018-08-11T10:38:26.847Z,69.50
2018-08-11T10:42:22.351Z,65.70
2018-08-11T10:46:16.435Z,66.10
2018-08-11T10:50:10.418Z,65.20
2018-08-11T10:54:04.513Z,63.70
2018-08-11T10:57:59.524Z,61.20
2018-08-11T11:01:53.660Z,61.30
2018-08-11T11:05:48.182Z,63.20
2018-08-11T11:09:42.643Z,62.50
2018-08-11T11:13:36.746Z,60.10
2018-08-11T11:17:31.723Z,59.00
2018-08-11T11:21:25.991Z,58.10
2018-08-11T11:25:20.520Z,57.60
2018-08-11T11:29:15.154Z,54.90
2018-08-11T11:33:09.186Z,54.20
2018-08-11T11:37:03.229Z,54.50
2018-08-11T11:40:57.650Z,53.50
2018-08-11T11:44:53.462Z,53.10
2018-08-11T11:48:48.947Z,51.90
2018-08-11T11:52:43.662Z,51.80
2018-08-11T11:56:37.747Z,50.60
2018-08-11T12:00:31.910Z,50.40
2018-08-11T12:04:27.564Z,49.60
2018-08-11T12:08:22.028Z,50.00
2018-08-11T12:12:16.757Z,50.50
2018-08-11T12:16:11.324Z,50.20
2018-08-11T12:20:06.363Z,50.00
2018-08-11T12:24:00.532Z,47.90
2018-08-11T12:27:54.556Z,48.90
2018-08-11T12:31:48.634Z,49.40
2018-08-11T12:39:42.345Z,47.80
2018-08-11T12:43:37.712Z,47.60
2018-08-11T12:47:32.700Z,47.90
2018-08-11T12:51:28.785Z,47.80
2018-08-11T12:55:22.744Z,45.40
2018-08-11T12:59:17.695Z,46.10
2018-08-11T13:03:11.661Z,47.20
2018-08-11T13:07:07.127Z,48.40
2018-08-11T13:11:01.968Z,49.00
2018-08-11T13:14:56.220Z,49.00
2018-08-11T13:18:51.831Z,49.30
2018-08-11T13:22:45.870Z,49.00
2018-08-11T13:26:39.870Z,46.50
2018-08-11T13:30:33.991Z,46.00
2018-08-11T13:34:28.145Z,45.80
2018-08-11T13:38:21.896Z,44.10
2018-08-11T13:42:16.801Z,44.80
2018-08-11T13:46:11.004Z,45.30
2018-08-11T13:50:06.497Z,45.50
2018-08-11T13:54:00.660Z,45.10
2018-08-11T13:57:55.384Z,44.60
2018-08-11T14:01:49.606Z,44.30
2018-08-11T14:05:43.627Z,43.00
2018-08-11T14:09:37.880Z,43.30
2018-08-11T14:13:32.214Z,42.30
2018-08-11T14:17:26.374Z,42.90
2018-08-11T14:21:20.406Z,44.00
2018-08-11T14:25:15.260Z,43.10
2018-08-11T14:29:07.918Z,43.60
2018-08-11T14:33:04.956Z,44.30
2018-08-11T14:36:59.242Z,44.20
2018-08-11T14:40:53.538Z,43.80
2018-08-11T14:44:48.271Z,43.10
2018-08-11T14:48:41.834Z,43.90
2018-08-11T14:52:35.814Z,44.10
2018-08-11T14:56:29.820Z,44.80
2018-08-11T15:00:23.907Z,44.70
2018-08-11T15:04:19.645Z,45.80
2018-08-11T15:08:15.584Z,46.40
2018-08-11T15:12:11.415Z,46.50
2018-08-11T15:16:05.560Z,47.70
2018-08-11T15:20:01.140Z,48.60
2018-08-11T15:23:55.767Z,49.30
2018-08-11T15:27:50.361Z,48.60
2018-08-11T15:31:45.346Z,48.40
2018-08-11T15:35:39.956Z,47.30
2018-08-11T15:39:34.923Z,47.00
2018-08-11T15:43:31.650Z,47.10
2018-08-11T15:47:25.864Z,48.00
2018-08-11T15:51:20.008Z,48.40
2018-08-11T15:55:13.954Z,47.90
2018-08-11T15:59:07.918Z,47.20
2018-08-11T16:03:02.160Z,47.10
2018-08-11T16:06:57.194Z,45.90
2018-08-11T16:10:51.308Z,45.40
2018-08-11T16:14:45.345Z,44.80
2018-08-11T16:18:39.555Z,44.30
2018-08-11T16:22:33.790Z,44.90
2018-08-11T16:26:27.823Z,46.60
2018-08-11T16:30:21.876Z,46.90
2018-08-11T16:34:15.976Z,46.90
2018-08-11T16:38:09.854Z,46.20
2018-08-11T16:42:04.005Z,45.90
2018-08-11T16:45:58.113Z,45.60
2018-08-11T16:49:52.839Z,46.10
2018-08-11T16:53:46.882Z,45.60
2018-08-11T16:57:41.296Z,46.00
2018-08-11T17:01:35.291Z,47.00
2018-08-11T17:05:29.551Z,46.50
2018-08-11T17:09:23.689Z,46.80
2018-08-11T17:13:18.395Z,47.50
2018-08-11T17:17:12.371Z,47.20
2018-08-11T17:21:06.492Z,47.70
2018-08-11T17:25:00.546Z,48.00
2018-08-11T17:28:54.664Z,48.30
2018-08-11T17:32:48.785Z,49.50
2018-08-11T17:36:44.103Z,50.20
2018-08-11T17:40:38.191Z,50.50
2018-08-11T17:44:32.238Z,50.30
2018-08-11T17:48:28.385Z,50.30
2018-08-11T17:52:22.431Z,50.20
2018-08-11T17:56:16.623Z,50.60
2018-08-11T18:00:10.607Z,50.10
2018-08-11T18:04:04.842Z,50.70
2018-08-11T18:08:00.954Z,51.20
2018-08-11T18:11:55.028Z,52.10
2018-08-11T18:15:49.042Z,52.30
2018-08-11T18:19:43.903Z,52.70
2018-08-11T18:23:39.771Z,52.90
2018-08-11T18:27:34.030Z,53.90
2018-08-11T18:31:28.194Z,53.30
2018-08-11T18:35:22.646Z,54.20
2018-08-11T18:39:21.557Z,54.90
2018-08-11T18:43:16.446Z,55.70
2018-08-11T18:47:10.518Z,56.70
2018-08-11T18:51:06.159Z,56.50
2018-08-11T18:55:00.414Z,57.20
2018-08-11T18:58:54.363Z,57.70
2018-08-11T19:02:48.727Z,58.40
2018-08-11T19:06:43.143Z,59.10
2018-08-11T19:10:37.126Z,59.60
2018-08-11T19:14:31.061Z,60.00
2018-08-11T19:18:25.090Z,61.00
2018-08-11T19:22:19.085Z,61.40
2018-08-11T19:26:13.120Z,61.90
2018-08-11T19:30:08.567Z,62.60
2018-08-11T19:34:02.751Z,63.00
2018-08-11T19:37:57.107Z,63.50
2018-08-11T19:41:51.448Z,63.90
2018-08-11T19:45:47.087Z,65.00
2018-08-11T19:49:41.264Z,65.80
2018-08-11T19:53:35.402Z,66.50
2018-08-11T19:57:29.530Z,67.10
2018-08-11T20:01:23.900Z,67.60
2018-08-11T20:05:17.853Z,68.50
2018-08-11T20:09:12.758Z,68.90
2018-08-11T20:13:06.753Z,70.20
2018-08-11T20:17:01.058Z,70.00
2018-08-11T20:20:55.167Z,71.20
2018-08-11T20:24:49.220Z,71.90
2018-08-11T20:28:43.357Z,73.10
2018-08-11T20:32:37.366Z,73.20
2018-08-11T20:36:31.455Z,74.20
2018-08-11T20:40:25.509Z,75.20
2018-08-11T20:44:20.155Z,77.10
2018-08-11T20:48:16.980Z,77.90
2018-08-11T20:52:11.758Z,78.50
2018-08-11T20:56:06.198Z,79.80
2018-08-11T21:00:07.360Z,81.10
2018-08-11T21:04:01.838Z,82.20
2018-08-11T21:07:56.619Z,83.30
2018-08-11T21:11:51.060Z,84.30
2018-08-11T21:15:46.357Z,85.10
2018-08-11T21:19:41.851Z,85.90
2018-08-11T21:23:38.585Z,86.50
2018-08-11T21:27:32.647Z,87.30
2018-08-11T21:31:26.822Z,88.20
2018-08-11T21:35:22.398Z,88.70
2018-08-11T21:39:16.488Z,89.30
2018-08-11T21:43:11.355Z,90.10
2018-08-11T21:47:05.400Z,90.30
2018-08-11T21:51:01.211Z,90.80
2018-08-11T21:55:00.219Z,91.00
2018-08-11T21:58:54.253Z,91.20
2018-08-11T22:02:48.501Z,91.50
2018-08-11T22:06:42.603Z,91.60
2018-08-11T22:10:36.817Z,91.70
2018-08-11T22:14:31.293Z,91.80
2018-08-11T22:18:25.647Z,92.10
2018-08-11T22:22:21.606Z,92.20
2018-08-11T22:26:15.955Z,92.40
2018-08-11T22:30:10.450Z,92.80
2018-08-11T22:34:04.940Z,92.70
2018-08-11T22:37:58.960Z,92.80
2018-08-11T22:41:53.718Z,93.00
2018-08-11T22:45:47.882Z,93.20
2018-08-11T22:49:41.392Z,93.50
2018-08-11T22:53:35.406Z,93.80
2018-08-11T22:57:29.322Z,93.90
2018-08-11T23:01:23.434Z,94.10
2018-08-11T23:05:18.914Z,94.30
2018-08-11T23:09:12.822Z,94.30
2018-08-11T23:13:06.835Z,94.20
2018-08-11T23:17:02.989Z,94.40
2018-08-11T23:20:57.351Z,94.70
2018-08-11T23:24:51.432Z,94.70
2018-08-11T23:28:45.340Z,94.90
2018-08-11T23:32:40.035Z,95.10
2018-08-11T23:36:33.824Z,95.20
2018-08-11T23:40:29.625Z,95.20
2018-08-11T23:44:23.715Z,94.80
2018-08-11T23:48:17.673Z,94.70
2018-08-11T23:52:11.736Z,94.50
2018-08-11T23:56:06.602Z,94.10
